Twin Springs, Nevada Weather observations

Data are for observation ending at time listed.
 Day   Time    Ave.   Ave.  Ave.  Vector   Max.   Stn.    Total    Solar   Ave.  
  of    of     Air    Rel.  Wind   Wind    Wind   Baro.  Precip.   Rad.    Soil  
Year   Day     Temp.  Hum.  Speed  Dir.    Gust   Pres.                    Temp. 
2015   (PST)    F      %     mph   deg.    mph     mb.     in.     W/m2     F   
------------------------------------------------------------------------------
 144    0:00   53.0    74    3.8   308      7.8    843     0.00       0    61.8
 144    1:00   52.7    70    7.1   330     11.3    842     0.00       0    61.1
 144    2:00   51.3    70    4.9   311      9.6    842     0.00       0    60.4
 144    3:00   48.2    79    2.5   335      5.7    842     0.00       0    59.7
 144    4:00   46.7    83    2.9   335      6.4    842     0.00       0    58.9
 144    5:00   46.8    86    3.7   329      7.8    843     0.00       4    58.0
 144    6:00   48.2    84    3.0   294      5.0    843     0.00      69    57.5
 144    7:00   55.2    67    3.3   333      6.9    843     0.00     331    57.2
 144    8:00   55.5    64    2.9   340      6.1    843     0.00     238    57.7
 144    9:00   60.9    52    2.7   220      9.9    843     0.00     623    58.4
 144   10:00   63.1    45    3.0   303      8.5    843     0.00     554    60.0
 144   11:00   64.9    40    4.3    58     12.1    842     0.00     666    62.1
 144   12:00   65.6    42    5.7   136     12.8    842     0.00     710    64.8
 144   13:00   68.5    34    4.2   275     10.1    841     0.00     885    67.3
 144   14:00   70.8    30    3.9   357     10.7    841     0.00     884    69.3
 144   15:00   71.2    28    4.3   352     18.1    840     0.00     432    69.8
 144   16:00   65.6    39    5.7   273     27.0    840     0.03      49    69.9
 144   17:00   57.3    72    4.6   194     14.5    841     0.02      59    69.4
 144   18:00   56.5    72    9.9    42     23.8    842     0.02      66    68.2
 144   19:00   55.2    69    9.4   127     17.7    842     0.00      17    66.9
 144   20:00   53.4    76    6.7   114     12.6    842     0.00       0    65.6
 144   21:00   52.1    79    2.1   309      7.4    842     0.00       0    64.3
 144   22:00   51.0    80    2.9     8      6.9    842     0.00       0    63.0

Return to Twin Springs, Nevada graphs page.


Western Regional Climate Center,wrcc@dri.edu